EW8078 Weather Reports


Display with metric or nautical units.
time (UTC)temp
F
wind
direction
speed
MPH
gust
MPH
rain 1hr
in
rain 24hr
in
rain mn
in
humidity
%
barometer
mb
20230206170014 42 345 0.0 5.0 0.00 0.00 0.00 26 1008.9
20230206164512 42 346 1.0 7.0 0.00 0.00 0.00 26 1008.7
20230206163010 42 297 2.0 7.0 0.00 0.00 0.00 26 1008.1
20230206161509 41 160 2.0 12.0 0.00 0.00 0.00 27 1007.9
20230206160008 39 262 1.0 10.0 0.00 0.00 0.00 28 1007.8
20230206154507 38 102 1.0 6.0 0.00 0.00 0.00 29 1008.0
20230206153007 38 264 0.0 7.0 0.00 0.00 0.00 29 1007.9
20230206151508 38 155 1.0 9.0 0.00 0.00 0.00 30 1007.6
20230206150002 36 240 0.0 1.0 0.00 0.00 0.00 38 1007.6
20230206144617 35 348 0.0 1.0 0.00 0.00 0.00 40 1007.1
20230206143057 35 231 0.0 0.0 0.00 0.00 0.00 38 1006.7
20230206141553 37 231 0.0 3.0 0.00 0.00 0.00 35 1006.4
20230206140050 38 244 0.0 4.0 0.00 0.00 0.00 32 1006.4
20230206134547 38 311 0.0 10.0 0.00 0.00 0.00 30 1006.2
20230206133047 38 319 0.0 3.0 0.00 0.00 0.00 34 1006.2
20230206131556 39 82 0.0 2.0 0.00 0.00 0.00 32 1005.8
20230206130057 39 297 1.0 10.0 0.00 0.00 0.00 31 1005.6
20230206124548 39 318 0.0 6.0 0.00 0.00 0.00 35 1005.2
20230206123043 39 333 0.0 7.0 0.00 0.00 0.00 34 1004.8
20230206121547 39 308 0.0 7.0 0.00 0.00 0.00 36 1005.1
20230206120040 39 31 0.0 12.0 0.00 0.00 0.00 38 1004.8
20230206114538 38 44 2.0 7.0 0.00 0.00 0.00 39 1004.9
20230206113036 39 170 1.0 9.0 0.00 0.00 0.00 41 1004.9
20230206111535 39 351 4.0 13.0 0.00 0.00 0.00 42 1004.8
20230206110040 40 297 0.0 7.0 0.00 0.00 0.00 45 1004.7
20230206104535 41 303 5.0 14.0 0.00 0.00 0.00 44 1004.2
20230206103027 42 326 2.0 8.0 0.00 0.00 0.00 45 1004.3
20230206101528 44 236 2.0 10.0 0.00 0.00 0.00 42 1004.2
20230206100025 44 333 3.0 14.0 0.00 0.00 0.00 39 1003.8
20230206094532 44 284 3.0 11.0 0.00 0.00 0.00 39 1003.7
20230206093019 45 276 1.0 7.0 0.00 0.00 0.00 37 1004.0
20230206091521 44 327 0.0 3.0 0.00 0.00 0.00 37 1004.0
20230206090035 45 203 3.0 8.0 0.00 0.00 0.00 36 1004.3
20230206084523 44 228 0.0 5.0 0.00 0.00 0.00 38 1004.3
20230206083008 44 324 0.0 5.0 0.00 0.00 0.00 40 1004.5
20230206081506 43 25 3.0 14.0 0.00 0.00 0.00 43 1004.9
20230206080003 42 110 0.0 9.0 0.00 0.00 0.00 45 1005.4
20230206074614 42 212 0.0 8.0 0.00 0.00 0.00 48 1005.6
20230206073105 42 342 3.0 8.0 0.00 0.00 0.00 46 1005.9
20230206071555 42 267 4.0 9.0 0.00 0.00 0.00 44 1006.1
20230206070110 43 286 5.0 12.0 0.00 0.00 0.00 41 1006.3
20230206064558 43 240 2.0 7.0 0.00 0.00 0.00 39 1006.4
20230206063049 44 214 2.0 8.0 0.00 0.00 0.00 37 1006.7
20230206061604 45 238 2.0 8.0 0.00 0.00 0.00 33 1006.8
20230206060051 45 266 2.0 7.0 0.00 0.00 0.00 28 1006.7
20230206054547 46 302 2.0 7.0 0.00 0.00 0.00 26 1006.6
20230206053046 46 298 2.0 10.0 0.00 0.00 0.00 26 1006.5
20230206051547 46 301 4.0 11.0 0.00 0.00 0.00 26 1006.7
20230206050050 44 338 0.0 2.0 0.00 0.00 0.00 28 1006.8
20230206044544 46 203 0.0 4.0 0.00 0.00 0.00 25 1007.1
20230206043051 47 227 0.0 7.0 0.00 0.00 0.00 26 1007.1
20230206041543 46 301 3.0 7.0 0.00 0.00 0.00 26 1006.9
20230206040041 34 333 0.0 3.0 0.00 0.00 0.00 60 1007.0
20230206034551 32 240 0.0 1.0 0.00 0.00 0.00 67 1007.3
20230206033040 32 240 0.0 1.0 0.00 0.00 0.00 66 1007.3
20230206031540 32 240 0.0 1.0 0.00 0.00 0.00 68 1007.3
20230206030040 32 240 0.0 1.0 0.00 0.00 0.00 68 1007.2
20230206024550 32 240 0.0 0.0 0.00 0.00 0.00 68 1007.6
20230206023039 31 240 0.0 1.0 0.00 0.00 0.00 69 1007.8
20230206021538 32 240 0.0 0.0 0.00 0.00 0.00 68 1008.0
20230206020036 33 240 0.0 0.0 0.00 0.00 0.00 67 1008.0
20230206014537 33 241 0.0 0.0 0.00 0.00 0.00 66 1007.9
20230206013035 34 240 0.0 0.0 0.00 0.00 0.00 65 1007.9
20230206011535 34 241 0.0 1.0 0.00 0.00 0.00 63 1007.4
20230206010033 36 236 0.0 1.0 0.00 0.00 0.00 61 1007.3
20230206004534 37 236 0.0 1.0 0.00 0.00 0.00 60 1007.1
20230206003031 38 229 0.0 1.0 0.00 0.00 0.00 57 1007.1
20230206001530 39 229 0.0 1.0 0.00 0.00 0.00 55 1006.6
20230206000030 40 229 0.0 0.0 0.00 0.00 0.00 52 1006.7
20230205234529 41 229 0.0 1.0 0.00 0.00 0.00 50 1006.7
20230205233032 42 229 0.0 0.0 0.00 0.00 0.00 47 1007.1
20230205231532 45 229 0.0 1.0 0.00 0.00 0.00 43 1007.1
20230205230035 46 97 0.0 2.0 0.00 0.00 0.00 41 1007.4
20230205224523 46 224 0.0 1.0 0.00 0.00 0.00 40 1007.5
20230205223022 47 92 0.0 4.0 0.00 0.00 0.00 40 1007.7
20230205221522 47 354 0.0 3.0 0.00 0.00 0.00 41 1007.9
20230205220019 47 35 0.0 1.0 0.00 0.00 0.00 42 1008.1
20230205214512 46 84 0.0 2.0 0.00 0.00 0.00 42 1008.3
20230205213008 45 98 0.0 4.0 0.00 0.00 0.00 43 1008.6
20230205211504 46 75 0.0 3.0 0.00 0.00 0.00 43 1009.0
20230205210002 46 39 0.0 4.0 0.00 0.00 0.00 41 1009.1
20230205204607 48 76 0.0 2.0 0.00 0.00 0.00 39 1009.3
20230205203100 49 134 0.0 4.0 0.00 0.00 0.00 36 1009.8
20230205201602 48 58 0.0 3.0 0.00 0.00 0.00 33 1010.1
20230205200052 48 347 0.0 3.0 0.00 0.00 0.00 32 1010.3
20230205194550 47 96 0.0 3.0 0.00 0.00 0.00 33 1010.8
20230205193108 48 28 0.0 4.0 0.00 0.00 0.00 35 1011.2
20230205191543 48 108 0.0 3.0 0.00 0.00 0.00 35 1011.7
20230205190041 49 98 0.0 4.0 0.00 0.00 0.00 35 1012.2
20230205184548 48 152 0.0 3.0 0.00 0.00 0.00 35 1012.7
20230205183033 47 158 0.0 4.0 0.00 0.00 0.00 37 1013.2
20230205181533 46 110 0.0 3.0 0.00 0.00 0.00 38 1013.7
20230205180028 46 80 0.0 3.0 0.00 0.00 0.00 35 1014.1
20230205174523 44 121 0.0 3.0 0.00 0.00 0.00 39 1014.2
20230205173029 43 147 0.0 2.0 0.00 0.00 0.00 38 1014.3
20230205171517 42 157 0.0 2.0 0.00 0.00 0.00 40 1014.4